RJFZ(METAR)
04/26 16:00
METAR RJFZ 260700Z 27010KT 9999 FEW015 BKN025 BKN040 17/10 Q1007 RMK
1CU015 5CU025 6CU040 A2975=
戻る
トップページへ戻る
IMOC Co,.Ltd.